createdAt,value
2023-05-10T00:00:23.494Z,14.99
2023-05-10T00:03:09.736Z,15.02
2023-05-10T00:05:38.089Z,14.85
2023-05-10T00:08:06.264Z,14.87
2023-05-10T00:10:34.531Z,14.72
2023-05-10T00:13:03.945Z,14.84
2023-05-10T00:15:32.335Z,14.80
2023-05-10T00:18:00.442Z,14.83
2023-05-10T00:20:28.746Z,14.77
2023-05-10T00:22:56.744Z,14.72
2023-05-10T00:25:25.018Z,14.84
2023-05-10T00:27:53.046Z,14.87
2023-05-10T00:30:22.835Z,14.78
2023-05-10T00:32:50.979Z,14.68
2023-05-10T00:35:19.318Z,14.66
2023-05-10T00:37:47.450Z,14.67
2023-05-10T00:40:16.769Z,14.62
2023-05-10T00:42:48.978Z,14.49
2023-05-10T00:45:17.246Z,14.42
2023-05-10T00:47:47.119Z,14.61
2023-05-10T00:50:16.943Z,14.51
2023-05-10T00:52:45.347Z,14.53
2023-05-10T00:55:13.894Z,14.65
2023-05-10T00:57:41.933Z,14.45
2023-05-10T01:00:12.075Z,14.32
2023-05-10T01:02:40.423Z,14.24
2023-05-10T01:05:10.711Z,14.23
2023-05-10T01:07:38.803Z,14.12
2023-05-10T01:10:07.930Z,14.26
2023-05-10T01:12:36.825Z,14.15
2023-05-10T01:15:06.512Z,14.20
2023-05-10T01:17:34.604Z,14.18
2023-05-10T01:20:03.035Z,14.16
2023-05-10T01:22:44.702Z,14.18
2023-05-10T01:25:31.314Z,14.28
2023-05-10T01:28:41.344Z,14.32
2023-05-10T01:31:20.670Z,14.28
2023-05-10T01:33:54.421Z,14.28
2023-05-10T01:36:27.962Z,14.19
2023-05-10T01:39:01.454Z,14.01
2023-05-10T01:41:39.596Z,14.14
2023-05-10T01:44:13.486Z,14.18
2023-05-10T01:46:42.125Z,14.21
2023-05-10T01:49:14.142Z,14.15
2023-05-10T01:51:47.449Z,14.09
2023-05-10T01:54:16.207Z,14.24
2023-05-10T01:56:45.961Z,14.16
2023-05-10T01:59:15.462Z,14.29
2023-05-10T02:01:44.933Z,14.07
2023-05-10T02:04:16.675Z,14.14
2023-05-10T02:06:45.425Z,14.09
2023-05-10T02:09:13.905Z,14.20
2023-05-10T02:11:43.664Z,14.07
2023-05-10T02:14:13.382Z,14.13
2023-05-10T02:16:41.742Z,14.07
2023-05-10T02:19:11.157Z,14.15
2023-05-10T02:21:41.638Z,14.19
2023-05-10T02:24:10.737Z,14.09
2023-05-10T02:26:40.236Z,14.24
2023-05-10T02:29:08.806Z,14.20
2023-05-10T02:31:37.130Z,14.27
2023-05-10T02:34:06.164Z,14.41
2023-05-10T02:36:34.996Z,14.41
2023-05-10T02:39:05.193Z,14.47
2023-05-10T02:41:34.360Z,14.45
2023-05-10T02:44:03.562Z,14.50
2023-05-10T02:46:32.432Z,14.53
2023-05-10T02:49:00.681Z,14.53
2023-05-10T02:51:34.520Z,14.51
2023-05-10T02:54:09.006Z,14.46
2023-05-10T02:56:40.379Z,14.29
2023-05-10T02:59:08.588Z,14.19
2023-05-10T03:01:36.857Z,14.21
2023-05-10T03:04:05.326Z,14.21
2023-05-10T03:06:33.825Z,14.16
2023-05-10T03:09:05.368Z,14.10
2023-05-10T03:11:42.153Z,14.08
2023-05-10T03:14:18.067Z,13.96
2023-05-10T03:16:48.878Z,14.07
2023-05-10T03:19:20.048Z,14.12
2023-05-10T03:21:52.247Z,14.38
2023-05-10T03:24:24.239Z,14.33
2023-05-10T03:26:53.887Z,14.23
2023-05-10T03:29:22.414Z,14.01
2023-05-10T03:31:50.758Z,14.01
2023-05-10T03:34:18.946Z,14.11
2023-05-10T03:36:47.159Z,14.21
2023-05-10T03:39:15.195Z,14.12
2023-05-10T03:41:46.183Z,14.08
2023-05-10T03:44:14.233Z,13.98
2023-05-10T03:46:42.562Z,14.04
2023-05-10T03:49:10.799Z,14.01
2023-05-10T03:51:39.101Z,13.76
2023-05-10T03:54:07.397Z,13.55
2023-05-10T03:56:35.657Z,13.44
2023-05-10T03:59:08.267Z,13.43
2023-05-10T04:01:36.736Z,13.43
2023-05-10T04:04:05.032Z,13.45
2023-05-10T04:06:33.923Z,13.34
2023-05-10T04:09:04.999Z,13.40
2023-05-10T04:11:33.469Z,13.43
2023-05-10T04:14:01.567Z,13.32
2023-05-10T04:16:31.205Z,13.38
2023-05-10T04:18:59.395Z,13.31
2023-05-10T04:21:27.897Z,13.27
2023-05-10T04:23:55.861Z,13.23
2023-05-10T04:26:24.844Z,13.18
2023-05-10T04:28:52.902Z,13.14
2023-05-10T04:31:21.213Z,13.20
2023-05-10T04:33:50.860Z,13.19
2023-05-10T04:36:19.194Z,13.26
2023-05-10T04:38:47.293Z,13.33
2023-05-10T04:41:15.571Z,13.46
2023-05-10T04:43:43.505Z,13.36
2023-05-10T04:46:11.893Z,13.41
2023-05-10T04:48:39.962Z,13.51
2023-05-10T04:51:09.666Z,13.57
2023-05-10T04:53:37.654Z,13.66
2023-05-10T04:56:06.539Z,13.74
2023-05-10T04:58:34.555Z,13.67
2023-05-10T05:01:07.371Z,13.82
2023-05-10T05:03:35.511Z,13.69
2023-05-10T05:06:04.339Z,13.80
2023-05-10T05:08:33.684Z,13.72
2023-05-10T05:11:01.928Z,13.69
2023-05-10T05:13:30.065Z,13.79
2023-05-10T05:15:58.488Z,13.87
2023-05-10T05:18:26.466Z,13.90
2023-05-10T05:20:54.720Z,13.99
2023-05-10T05:23:25.606Z,14.06
2023-05-10T05:25:55.482Z,14.16
2023-05-10T05:28:23.521Z,14.19
2023-05-10T05:30:51.830Z,14.21
2023-05-10T05:33:19.803Z,14.37
2023-05-10T05:35:51.636Z,14.42
2023-05-10T05:38:19.697Z,14.50
2023-05-10T05:40:48.101Z,14.54
2023-05-10T05:43:17.462Z,14.67
2023-05-10T05:45:45.781Z,14.62
2023-05-10T05:48:13.819Z,14.63
2023-05-10T05:50:42.166Z,14.69
2023-05-10T05:53:11.008Z,14.74
2023-05-10T05:55:39.368Z,14.78
2023-05-10T05:58:07.514Z,14.69
2023-05-10T06:00:37.246Z,14.75
2023-05-10T06:03:05.440Z,14.78
2023-05-10T06:05:33.761Z,14.71
2023-05-10T06:08:02.060Z,14.52
2023-05-10T06:10:31.413Z,14.58
2023-05-10T06:12:59.443Z,14.62
2023-05-10T06:15:27.997Z,14.56
2023-05-10T06:17:57.346Z,14.64
2023-05-10T06:20:25.630Z,14.68
2023-05-10T06:22:53.636Z,14.50
2023-05-10T06:25:22.235Z,14.49
2023-05-10T06:27:52.879Z,14.64
2023-05-10T06:30:24.055Z,14.65
2023-05-10T06:32:52.759Z,14.58
2023-05-10T06:35:22.538Z,14.64
2023-05-10T06:37:50.607Z,14.69
2023-05-10T06:40:19.349Z,14.61
2023-05-10T06:42:47.526Z,14.57
2023-05-10T06:45:16.590Z,14.67
2023-05-10T06:47:45.020Z,14.66
2023-05-10T06:50:13.455Z,14.65
2023-05-10T06:52:44.078Z,14.58
2023-05-10T06:55:12.890Z,14.60
2023-05-10T06:57:40.881Z,14.42
2023-05-10T07:00:10.535Z,14.37
2023-05-10T07:02:38.575Z,14.41
2023-05-10T07:05:07.570Z,14.61
2023-05-10T07:07:35.598Z,14.56
2023-05-10T07:10:05.990Z,14.56
2023-05-10T07:12:34.135Z,14.56
2023-05-10T07:15:02.453Z,14.60
2023-05-10T07:17:31.069Z,14.68
2023-05-10T07:19:59.333Z,14.90
2023-05-10T07:22:27.414Z,14.73
2023-05-10T07:24:56.172Z,14.99
2023-05-10T07:27:25.983Z,14.98
2023-05-10T07:29:54.216Z,15.10
2023-05-10T07:32:22.360Z,15.11
2023-05-10T07:34:50.695Z,15.12
2023-05-10T07:37:18.637Z,15.14
2023-05-10T07:39:46.914Z,15.16
2023-05-10T07:42:14.944Z,15.31
2023-05-10T07:44:44.620Z,15.57
2023-05-10T07:47:12.636Z,15.48
2023-05-10T07:49:41.115Z,15.27
2023-05-10T07:52:09.092Z,15.25
2023-05-10T07:54:37.387Z,15.43
2023-05-10T07:57:05.734Z,15.37
2023-05-10T07:59:34.433Z,15.54
2023-05-10T08:02:03.783Z,15.76
2023-05-10T08:04:32.081Z,15.83
2023-05-10T08:07:00.127Z,15.67
2023-05-10T08:09:28.362Z,15.70
2023-05-10T08:11:56.380Z,16.27
2023-05-10T08:14:24.597Z,15.92
2023-05-10T08:16:52.587Z,15.71
2023-05-10T08:19:22.471Z,15.70
2023-05-10T08:21:50.712Z,16.20
2023-05-10T08:24:19.061Z,15.90
2023-05-10T08:26:47.013Z,15.89
2023-05-10T08:29:15.300Z,15.96
2023-05-10T08:31:43.611Z,15.93
2023-05-10T08:34:12.014Z,16.33
2023-05-10T08:36:41.358Z,16.32
2023-05-10T08:39:22.924Z,16.45
2023-05-10T08:41:56.244Z,16.18
2023-05-10T08:44:24.477Z,16.33
2023-05-10T08:46:53.550Z,16.29
2023-05-10T08:49:22.045Z,16.30
2023-05-10T08:51:54.362Z,16.35
2023-05-10T08:54:23.346Z,16.52
2023-05-10T08:56:51.351Z,16.32
2023-05-10T08:59:19.822Z,16.33
2023-05-10T09:01:50.263Z,16.22
2023-05-10T09:04:18.755Z,16.45
2023-05-10T09:06:46.875Z,16.41
2023-05-10T09:09:17.033Z,16.35
2023-05-10T09:11:45.464Z,16.20
2023-05-10T09:14:14.596Z,16.18
2023-05-10T09:16:43.089Z,16.24
2023-05-10T09:19:11.610Z,16.29
2023-05-10T09:21:40.150Z,15.92
2023-05-10T09:24:09.734Z,16.31
2023-05-10T09:26:48.432Z,16.30
2023-05-10T09:29:17.758Z,16.21
2023-05-10T09:31:48.311Z,16.51
2023-05-10T09:34:20.898Z,16.68
2023-05-10T09:36:56.236Z,16.75
2023-05-10T09:39:32.792Z,16.73
2023-05-10T09:42:05.234Z,16.62
2023-05-10T09:44:33.817Z,16.56
2023-05-10T09:47:02.208Z,16.55
2023-05-10T09:49:30.847Z,16.53
2023-05-10T09:52:03.669Z,16.59
2023-05-10T09:54:32.140Z,16.59
2023-05-10T09:57:00.194Z,16.29
2023-05-10T09:59:31.229Z,16.42
2023-05-10T10:02:00.153Z,16.17
2023-05-10T10:04:29.902Z,16.30
2023-05-10T10:07:02.523Z,16.43
2023-05-10T10:09:31.310Z,16.50
2023-05-10T10:11:59.685Z,16.73
2023-05-10T10:14:28.217Z,16.59
2023-05-10T10:17:07.227Z,16.88
2023-05-10T10:19:38.076Z,16.74
2023-05-10T10:22:06.819Z,16.73
2023-05-10T10:24:35.642Z,16.34
2023-05-10T10:27:11.351Z,16.50
2023-05-10T10:29:45.786Z,16.50
2023-05-10T10:32:24.538Z,16.36
2023-05-10T10:34:53.199Z,16.48
2023-05-10T10:37:21.241Z,16.54
2023-05-10T10:39:50.615Z,16.38
2023-05-10T10:42:45.833Z,16.50
2023-05-10T10:45:14.803Z,16.43
2023-05-10T10:47:44.860Z,16.52
2023-05-10T10:50:13.909Z,16.65
2023-05-10T10:52:42.728Z,16.85
2023-05-10T10:55:12.450Z,16.67
2023-05-10T10:57:48.728Z,16.72
2023-05-10T11:00:31.596Z,17.08
2023-05-10T11:03:02.483Z,17.43
2023-05-10T11:05:42.151Z,17.59
2023-05-10T11:08:12.760Z,17.30
2023-05-10T11:10:42.266Z,17.54
2023-05-10T11:13:11.176Z,17.70
2023-05-10T11:15:40.759Z,17.88
2023-05-10T11:18:23.141Z,17.79
2023-05-10T11:20:54.737Z,18.09
2023-05-10T11:23:23.137Z,18.28
2023-05-10T11:25:51.661Z,18.23
2023-05-10T11:28:20.894Z,18.52
2023-05-10T11:30:49.403Z,18.58
2023-05-10T11:33:18.753Z,18.50
2023-05-10T11:35:48.437Z,18.71
2023-05-10T11:38:16.513Z,18.46
2023-05-10T11:40:45.548Z,18.44
2023-05-10T11:43:13.981Z,18.14
2023-05-10T11:45:43.230Z,18.46
2023-05-10T11:48:11.384Z,18.33
2023-05-10T11:50:39.820Z,18.27
2023-05-10T11:53:09.406Z,18.39
2023-05-10T11:55:37.633Z,17.96
2023-05-10T11:58:05.971Z,18.15
2023-05-10T12:00:34.810Z,18.52
2023-05-10T12:03:03.403Z,18.75
2023-05-10T12:05:34.718Z,18.96
2023-05-10T12:08:17.592Z,19.01
2023-05-10T12:10:45.868Z,18.60
2023-05-10T12:13:15.420Z,18.63
2023-05-10T12:15:45.732Z,18.55
2023-05-10T12:18:14.605Z,18.89
2023-05-10T12:20:43.385Z,19.03
2023-05-10T12:23:12.021Z,19.17
2023-05-10T12:25:41.770Z,19.20
2023-05-10T12:28:11.167Z,18.92
2023-05-10T12:30:39.785Z,18.86
2023-05-10T12:33:10.837Z,18.36
2023-05-10T12:35:46.963Z,18.32
2023-05-10T12:38:31.572Z,18.56
2023-05-10T12:41:02.305Z,18.76
2023-05-10T12:43:31.204Z,18.63
2023-05-10T12:46:00.008Z,18.84
2023-05-10T12:48:29.646Z,18.97
2023-05-10T12:50:57.915Z,19.13
2023-05-10T12:53:26.072Z,19.12
2023-05-10T12:55:54.627Z,18.58
2023-05-10T12:58:34.964Z,18.76
2023-05-10T13:01:05.101Z,18.49
2023-05-10T13:03:35.558Z,18.48
2023-05-10T13:06:03.612Z,18.72
2023-05-10T13:08:34.724Z,18.78
2023-05-10T13:11:03.697Z,18.92
2023-05-10T13:13:33.362Z,19.09
2023-05-10T13:16:01.489Z,19.24
2023-05-10T13:18:29.844Z,19.42
2023-05-10T13:20:57.899Z,19.37
2023-05-10T13:23:26.148Z,19.40
2023-05-10T13:25:54.130Z,19.51
2023-05-10T13:28:22.426Z,19.52
2023-05-10T13:30:52.015Z,19.52
2023-05-10T13:33:20.435Z,19.56
2023-05-10T13:35:48.696Z,19.49
2023-05-10T13:38:16.948Z,19.56
2023-05-10T13:40:44.981Z,19.79
2023-05-10T13:43:13.436Z,19.15
2023-05-10T13:45:41.670Z,19.82
2023-05-10T13:48:11.346Z,20.03
2023-05-10T13:50:39.518Z,19.99
2023-05-10T13:53:07.938Z,19.95
2023-05-10T13:55:36.021Z,19.69
2023-05-10T13:58:04.343Z,19.89
2023-05-10T14:00:32.846Z,19.81
2023-05-10T14:03:01.562Z,20.02
2023-05-10T14:05:31.038Z,20.01
2023-05-10T14:08:07.424Z,20.15
2023-05-10T14:10:40.460Z,20.26
2023-05-10T14:13:08.943Z,19.88
2023-05-10T14:15:37.060Z,20.07
2023-05-10T14:18:05.330Z,20.14
2023-05-10T14:20:34.855Z,19.91
2023-05-10T14:23:03.336Z,20.47
2023-05-10T14:25:31.521Z,20.33
2023-05-10T14:27:59.813Z,20.33
2023-05-10T14:30:27.868Z,19.94
2023-05-10T14:32:56.334Z,20.39
2023-05-10T14:35:24.508Z,20.03
2023-05-10T14:37:54.386Z,20.58
2023-05-10T14:40:22.474Z,20.78
2023-05-10T14:42:50.762Z,20.76
2023-05-10T14:45:19.246Z,20.92
2023-05-10T14:47:47.586Z,20.40
2023-05-10T14:50:28.167Z,20.46
2023-05-10T14:53:05.204Z,20.37
2023-05-10T14:55:33.506Z,20.82
2023-05-10T14:58:01.893Z,20.66
2023-05-10T15:00:31.379Z,20.80
2023-05-10T15:03:00.528Z,20.75
2023-05-10T15:05:29.008Z,19.70
2023-05-10T15:07:57.517Z,19.89
2023-05-10T15:10:26.846Z,20.20
2023-05-10T15:12:55.025Z,20.38
2023-05-10T15:15:23.082Z,20.20
2023-05-10T15:17:51.450Z,20.58
2023-05-10T15:20:19.558Z,20.52
2023-05-10T15:22:47.804Z,19.81
2023-05-10T15:25:16.786Z,19.89
2023-05-10T15:27:46.536Z,20.00
2023-05-10T15:30:14.923Z,20.14
2023-05-10T15:32:43.831Z,20.43
2023-05-10T15:35:12.193Z,20.13
2023-05-10T15:37:40.497Z,20.18
2023-05-10T15:40:09.180Z,20.81
2023-05-10T15:42:37.596Z,20.87
2023-05-10T15:45:08.259Z,21.09
2023-05-10T15:47:36.504Z,21.26
2023-05-10T15:50:04.780Z,21.13
2023-05-10T15:52:32.977Z,21.57
2023-05-10T15:55:01.037Z,22.09
2023-05-10T15:57:29.225Z,22.39
2023-05-10T15:59:57.842Z,22.42
2023-05-10T16:02:27.434Z,22.41
2023-05-10T16:04:55.580Z,21.80
2023-05-10T16:07:23.811Z,21.63
2023-05-10T16:09:51.800Z,21.89
2023-05-10T16:12:20.950Z,20.96
2023-05-10T16:14:49.124Z,21.28
2023-05-10T16:17:17.404Z,20.78
2023-05-10T16:19:47.342Z,21.39
2023-05-10T16:22:15.719Z,21.15
2023-05-10T16:24:43.815Z,20.79
2023-05-10T16:27:13.196Z,20.17
2023-05-10T16:29:41.218Z,19.89
2023-05-10T16:32:09.439Z,20.23
2023-05-10T16:34:37.490Z,20.37
2023-05-10T16:37:07.326Z,20.53
2023-05-10T16:39:35.418Z,20.73
2023-05-10T16:42:03.615Z,20.96
2023-05-10T16:44:31.632Z,20.62
2023-05-10T16:46:59.915Z,20.51
2023-05-10T16:49:27.909Z,20.06
2023-05-10T16:51:56.171Z,20.20
2023-05-10T16:54:26.140Z,20.52
2023-05-10T16:56:54.461Z,20.39
2023-05-10T16:59:22.438Z,20.36
2023-05-10T17:01:53.292Z,20.00
2023-05-10T17:04:21.683Z,19.93
2023-05-10T17:06:49.913Z,19.92
2023-05-10T17:09:17.878Z,19.85
2023-05-10T17:11:47.562Z,19.87
2023-05-10T17:14:15.567Z,19.71
2023-05-10T17:16:43.804Z,19.76
2023-05-10T17:19:11.828Z,19.29
2023-05-10T17:21:40.156Z,19.00
2023-05-10T17:24:08.349Z,19.22
2023-05-10T17:26:36.813Z,18.97
2023-05-10T17:29:06.162Z,18.94
2023-05-10T17:31:34.489Z,18.81
2023-05-10T17:34:05.328Z,18.78
2023-05-10T17:36:34.322Z,18.45
2023-05-10T17:39:02.370Z,18.27
2023-05-10T17:41:30.622Z,18.35
2023-05-10T17:43:58.721Z,18.10
2023-05-10T17:46:28.344Z,18.08
2023-05-10T17:48:56.421Z,17.89
2023-05-10T17:51:24.600Z,17.94
2023-05-10T17:53:52.651Z,17.80
2023-05-10T17:56:22.182Z,17.73
2023-05-10T17:58:50.505Z,17.66
2023-05-10T18:01:18.903Z,17.63
2023-05-10T18:03:49.898Z,17.42
2023-05-10T18:06:18.311Z,17.39
2023-05-10T18:08:46.438Z,17.30
2023-05-10T18:11:14.726Z,17.30
2023-05-10T18:13:42.751Z,17.14
2023-05-10T18:16:12.595Z,17.21
2023-05-10T18:18:40.714Z,17.16
2023-05-10T18:21:10.378Z,17.24
2023-05-10T18:23:38.347Z,17.44
2023-05-10T18:26:06.735Z,17.89
2023-05-10T18:28:34.848Z,18.00
2023-05-10T18:31:03.232Z,18.09
2023-05-10T18:33:31.291Z,17.72
2023-05-10T18:35:59.787Z,17.57
2023-05-10T18:38:29.255Z,17.54
2023-05-10T18:40:57.709Z,17.20
2023-05-10T18:43:25.696Z,17.21
2023-05-10T18:45:53.960Z,16.97
2023-05-10T18:48:21.973Z,16.96
2023-05-10T18:50:50.254Z,16.82
2023-05-10T18:53:18.204Z,16.63
2023-05-10T18:55:47.855Z,16.78
2023-05-10T18:58:15.863Z,16.60
2023-05-10T19:00:44.085Z,16.62
2023-05-10T19:03:12.053Z,16.63
2023-05-10T19:05:40.378Z,16.58
2023-05-10T19:08:08.384Z,16.49
2023-05-10T19:10:36.642Z,16.29
2023-05-10T19:13:06.019Z,16.17
2023-05-10T19:15:34.245Z,16.15
2023-05-10T19:18:03.176Z,16.13
2023-05-10T19:20:31.425Z,16.00
2023-05-10T19:23:09.766Z,16.20
2023-05-10T19:25:39.248Z,16.24
2023-05-10T19:28:10.719Z,16.00
2023-05-10T19:30:38.955Z,15.88
2023-05-10T19:33:07.098Z,15.84
2023-05-10T19:35:35.510Z,15.77
2023-05-10T19:38:03.508Z,15.69
2023-05-10T19:40:32.010Z,15.66
2023-05-10T19:43:00.362Z,15.70
2023-05-10T19:45:30.162Z,15.64
2023-05-10T19:47:58.602Z,15.67
2023-05-10T19:50:26.988Z,15.64
2023-05-10T19:52:54.974Z,15.63
2023-05-10T19:55:28.593Z,15.67
2023-05-10T19:57:56.814Z,15.71
2023-05-10T20:00:25.987Z,15.79
2023-05-10T20:02:55.591Z,15.73
2023-05-10T20:05:24.204Z,15.79
2023-05-10T20:07:52.350Z,15.80
2023-05-10T20:10:21.521Z,15.75
2023-05-10T20:12:52.365Z,15.84
2023-05-10T20:15:22.689Z,15.88
2023-05-10T20:17:52.720Z,15.94
2023-05-10T20:20:23.523Z,16.08
2023-05-10T20:22:51.948Z,16.01
2023-05-10T20:25:20.344Z,16.02
2023-05-10T20:27:50.685Z,16.01
2023-05-10T20:30:19.519Z,15.81
2023-05-10T20:32:47.913Z,15.86
2023-05-10T20:35:16.271Z,15.98
2023-05-10T20:37:45.739Z,16.03
2023-05-10T20:40:14.279Z,15.98
2023-05-10T20:42:42.367Z,15.91
2023-05-10T20:45:11.641Z,15.83
2023-05-10T20:47:39.717Z,15.89
2023-05-10T20:50:08.868Z,15.76
2023-05-10T20:52:36.833Z,15.75
2023-05-10T20:55:07.707Z,15.73
2023-05-10T20:57:36.501Z,15.72
2023-05-10T21:00:05.679Z,15.77
2023-05-10T21:02:33.942Z,15.73
2023-05-10T21:05:02.369Z,15.76
2023-05-10T21:07:32.249Z,15.91
2023-05-10T21:10:00.503Z,15.92
2023-05-10T21:12:29.963Z,16.00
2023-05-10T21:14:58.383Z,16.17
2023-05-10T21:17:26.383Z,16.49
2023-05-10T21:19:54.664Z,16.61
2023-05-10T21:22:22.718Z,16.65
2023-05-10T21:24:51.115Z,16.66
2023-05-10T21:27:19.055Z,16.64
2023-05-10T21:29:48.766Z,16.49
2023-05-10T21:32:16.857Z,16.34
2023-05-10T21:34:45.120Z,16.20
2023-05-10T21:37:13.603Z,16.05
2023-05-10T21:39:42.101Z,15.93
2023-05-10T21:42:10.288Z,15.83
2023-05-10T21:44:39.221Z,15.78
2023-05-10T21:47:08.747Z,15.65
2023-05-10T21:49:36.981Z,15.55
2023-05-10T21:52:08.017Z,15.58
2023-05-10T21:54:37.279Z,15.49
2023-05-10T21:57:05.262Z,15.44
2023-05-10T21:59:33.845Z,15.41
2023-05-10T22:02:02.126Z,15.42
2023-05-10T22:04:32.101Z,15.30
2023-05-10T22:07:00.131Z,15.28
2023-05-10T22:09:28.386Z,15.30
2023-05-10T22:11:56.576Z,15.25
2023-05-10T22:14:25.024Z,15.22
2023-05-10T22:16:53.057Z,15.16
2023-05-10T22:19:21.326Z,15.21
2023-05-10T22:21:50.757Z,15.12
2023-05-10T22:24:19.255Z,15.06
2023-05-10T22:26:47.329Z,14.96
2023-05-10T22:29:15.532Z,14.98
2023-05-10T22:31:43.491Z,14.85
2023-05-10T22:34:11.721Z,14.72
2023-05-10T22:36:39.743Z,14.70
2023-05-10T22:39:09.371Z,14.60
2023-05-10T22:41:37.373Z,14.55
2023-05-10T22:44:05.692Z,14.51
2023-05-10T22:46:33.699Z,14.33
2023-05-10T22:49:02.535Z,14.31
2023-05-10T22:51:30.524Z,14.44
2023-05-10T22:53:58.840Z,14.49
2023-05-10T22:56:28.226Z,14.54
2023-05-10T22:58:57.680Z,14.57
2023-05-10T23:01:25.772Z,14.53
2023-05-10T23:03:54.049Z,14.33
2023-05-10T23:06:22.109Z,14.32
2023-05-10T23:08:50.396Z,14.33
2023-05-10T23:11:18.422Z,14.14
2023-05-10T23:13:48.122Z,14.15
2023-05-10T23:16:16.123Z,14.13
2023-05-10T23:18:44.391Z,14.08
2023-05-10T23:21:12.432Z,14.14
2023-05-10T23:23:41.317Z,14.21
2023-05-10T23:26:09.411Z,14.23
2023-05-10T23:28:37.914Z,14.23
2023-05-10T23:31:07.246Z,14.24
2023-05-10T23:33:35.603Z,14.28
2023-05-10T23:36:03.551Z,14.40
2023-05-10T23:38:31.864Z,14.39
2023-05-10T23:40:59.869Z,14.41
2023-05-10T23:43:28.306Z,14.44
2023-05-10T23:45:56.711Z,14.50
2023-05-10T23:48:26.662Z,14.59
2023-05-10T23:50:54.712Z,14.53
2023-05-10T23:53:23.043Z,14.52
2023-05-10T23:55:51.049Z,14.48
2023-05-10T23:58:19.282Z,14.51
